sensor_id;sensor_type;location;lat;lon;timestamp;P1;durP1;ratioP1;P2;durP2;ratioP2
6517;SDS011;3292;48.944;9.240;2024-03-02T00:01:30;19.40;;;15.83;;
6517;SDS011;3292;48.944;9.240;2024-03-02T00:03:59;18.70;;;14.97;;
6517;SDS011;3292;48.944;9.240;2024-03-02T00:06:25;17.23;;;14.37;;
6517;SDS011;3292;48.944;9.240;2024-03-02T00:08:55;20.50;;;15.00;;
6517;SDS011;3292;48.944;9.240;2024-03-02T00:11:24;19.27;;;15.90;;
6517;SDS011;3292;48.944;9.240;2024-03-02T00:13:52;16.47;;;14.53;;
6517;SDS011;3292;48.944;9.240;2024-03-02T00:16:19;17.80;;;14.63;;
6517;SDS011;3292;48.944;9.240;2024-03-02T00:18:47;17.53;;;14.30;;
6517;SDS011;3292;48.944;9.240;2024-03-02T00:21:15;16.30;;;14.47;;
6517;SDS011;3292;48.944;9.240;2024-03-02T00:23:45;17.43;;;14.77;;
6517;SDS011;3292;48.944;9.240;2024-03-02T00:26:12;18.27;;;14.63;;
6517;SDS011;3292;48.944;9.240;2024-03-02T00:28:39;18.97;;;15.07;;
6517;SDS011;3292;48.944;9.240;2024-03-02T00:31:09;17.13;;;14.60;;
6517;SDS011;3292;48.944;9.240;2024-03-02T00:33:39;17.77;;;13.77;;
6517;SDS011;3292;48.944;9.240;2024-03-02T00:36:08;16.30;;;13.93;;
6517;SDS011;3292;48.944;9.240;2024-03-02T00:38:40;19.07;;;14.40;;
6517;SDS011;3292;48.944;9.240;2024-03-02T00:41:15;17.20;;;13.93;;
6517;SDS011;3292;48.944;9.240;2024-03-02T00:43:45;17.07;;;14.23;;
6517;SDS011;3292;48.944;9.240;2024-03-02T00:46:15;17.57;;;14.83;;
6517;SDS011;3292;48.944;9.240;2024-03-02T00:48:48;19.00;;;15.23;;
6517;SDS011;3292;48.944;9.240;2024-03-02T00:51:19;17.20;;;15.00;;
6517;SDS011;3292;48.944;9.240;2024-03-02T00:53:48;17.53;;;14.50;;
6517;SDS011;3292;48.944;9.240;2024-03-02T00:56:15;16.43;;;13.73;;
6517;SDS011;3292;48.944;9.240;2024-03-02T00:58:42;19.07;;;14.33;;
6517;SDS011;3292;48.944;9.240;2024-03-02T01:01:09;17.60;;;14.17;;
6517;SDS011;3292;48.944;9.240;2024-03-02T01:03:36;19.73;;;14.97;;
6517;SDS011;3292;48.944;9.240;2024-03-02T01:06:04;15.83;;;14.13;;
6517;SDS011;3292;48.944;9.240;2024-03-02T01:08:32;16.40;;;14.03;;
6517;SDS011;3292;48.944;9.240;2024-03-02T01:11:00;17.70;;;13.87;;
6517;SDS011;3292;48.944;9.240;2024-03-02T01:13:27;19.20;;;14.90;;
6517;SDS011;3292;48.944;9.240;2024-03-02T01:15:54;18.00;;;14.53;;
6517;SDS011;3292;48.944;9.240;2024-03-02T01:18:21;15.30;;;13.00;;
6517;SDS011;3292;48.944;9.240;2024-03-02T01:20:48;15.47;;;13.30;;
6517;SDS011;3292;48.944;9.240;2024-03-02T01:23:16;15.33;;;13.03;;
6517;SDS011;3292;48.944;9.240;2024-03-02T01:25:44;16.90;;;13.80;;
6517;SDS011;3292;48.944;9.240;2024-03-02T01:28:12;15.57;;;13.37;;
6517;SDS011;3292;48.944;9.240;2024-03-02T01:30:39;15.40;;;13.20;;
6517;SDS011;3292;48.944;9.240;2024-03-02T01:33:06;18.53;;;13.50;;
6517;SDS011;3292;48.944;9.240;2024-03-02T01:35:33;17.03;;;14.43;;
6517;SDS011;3292;48.944;9.240;2024-03-02T01:38:00;15.37;;;12.83;;
6517;SDS011;3292;48.944;9.240;2024-03-02T01:40:27;15.03;;;13.27;;
6517;SDS011;3292;48.944;9.240;2024-03-02T01:42:54;15.73;;;13.70;;
6517;SDS011;3292;48.944;9.240;2024-03-02T01:45:24;16.33;;;13.73;;
6517;SDS011;3292;48.944;9.240;2024-03-02T01:47:51;14.30;;;12.80;;
6517;SDS011;3292;48.944;9.240;2024-03-02T01:50:24;17.43;;;13.60;;
6517;SDS011;3292;48.944;9.240;2024-03-02T01:52:51;15.87;;;13.23;;
6517;SDS011;3292;48.944;9.240;2024-03-02T01:55:18;15.97;;;13.80;;
6517;SDS011;3292;48.944;9.240;2024-03-02T01:57:46;17.23;;;13.73;;
6517;SDS011;3292;48.944;9.240;2024-03-02T02:00:13;16.13;;;13.13;;
6517;SDS011;3292;48.944;9.240;2024-03-02T02:02:42;14.50;;;12.93;;
6517;SDS011;3292;48.944;9.240;2024-03-02T02:05:09;15.17;;;13.07;;
6517;SDS011;3292;48.944;9.240;2024-03-02T02:07:36;16.63;;;12.27;;
6517;SDS011;3292;48.944;9.240;2024-03-02T02:10:03;16.50;;;13.97;;
6517;SDS011;3292;48.944;9.240;2024-03-02T02:12:31;17.20;;;13.80;;
6517;SDS011;3292;48.944;9.240;2024-03-02T02:14:58;16.37;;;12.87;;
6517;SDS011;3292;48.944;9.240;2024-03-02T02:17:25;15.93;;;13.00;;
6517;SDS011;3292;48.944;9.240;2024-03-02T02:19:53;17.03;;;13.43;;
6517;SDS011;3292;48.944;9.240;2024-03-02T02:22:21;16.50;;;13.13;;
6517;SDS011;3292;48.944;9.240;2024-03-02T02:24:48;18.37;;;13.47;;
6517;SDS011;3292;48.944;9.240;2024-03-02T02:27:15;15.93;;;13.40;;
6517;SDS011;3292;48.944;9.240;2024-03-02T02:29:42;15.10;;;13.00;;
6517;SDS011;3292;48.944;9.240;2024-03-02T02:32:08;15.50;;;12.90;;
6517;SDS011;3292;48.944;9.240;2024-03-02T02:34:35;16.50;;;13.87;;
6517;SDS011;3292;48.944;9.240;2024-03-02T02:37:02;14.83;;;12.47;;
6517;SDS011;3292;48.944;9.240;2024-03-02T02:39:30;17.40;;;12.93;;
6517;SDS011;3292;48.944;9.240;2024-03-02T02:41:57;16.97;;;12.90;;
6517;SDS011;3292;48.944;9.240;2024-03-02T02:44:26;14.37;;;12.73;;
6517;SDS011;3292;48.944;9.240;2024-03-02T02:46:52;17.97;;;14.20;;
6517;SDS011;3292;48.944;9.240;2024-03-02T02:49:19;17.53;;;14.87;;
6517;SDS011;3292;48.944;9.240;2024-03-02T02:51:46;21.03;;;14.57;;
6517;SDS011;3292;48.944;9.240;2024-03-02T02:54:13;19.87;;;14.47;;
6517;SDS011;3292;48.944;9.240;2024-03-02T02:56:41;17.70;;;13.97;;
6517;SDS011;3292;48.944;9.240;2024-03-02T02:59:07;17.23;;;13.67;;
6517;SDS011;3292;48.944;9.240;2024-03-02T03:01:34;16.43;;;13.93;;
6517;SDS011;3292;48.944;9.240;2024-03-02T03:04:01;16.23;;;13.23;;
6517;SDS011;3292;48.944;9.240;2024-03-02T03:06:28;14.57;;;12.57;;
6517;SDS011;3292;48.944;9.240;2024-03-02T03:08:55;16.93;;;13.37;;
6517;SDS011;3292;48.944;9.240;2024-03-02T03:11:22;17.10;;;13.60;;
6517;SDS011;3292;48.944;9.240;2024-03-02T03:13:52;17.53;;;13.83;;
6517;SDS011;3292;48.944;9.240;2024-03-02T03:16:20;19.30;;;15.23;;
6517;SDS011;3292;48.944;9.240;2024-03-02T03:18:46;17.30;;;13.37;;
6517;SDS011;3292;48.944;9.240;2024-03-02T03:21:15;19.30;;;14.50;;
6517;SDS011;3292;48.944;9.240;2024-03-02T03:23:42;20.33;;;15.13;;
6517;SDS011;3292;48.944;9.240;2024-03-02T03:26:09;17.20;;;14.03;;
6517;SDS011;3292;48.944;9.240;2024-03-02T03:28:35;18.00;;;14.73;;
6517;SDS011;3292;48.944;9.240;2024-03-02T03:31:04;16.70;;;13.53;;
6517;SDS011;3292;48.944;9.240;2024-03-02T03:33:31;17.73;;;13.27;;
6517;SDS011;3292;48.944;9.240;2024-03-02T03:35:58;17.53;;;14.63;;
6517;SDS011;3292;48.944;9.240;2024-03-02T03:38:24;18.93;;;15.47;;
6517;SDS011;3292;48.944;9.240;2024-03-02T03:40:51;16.00;;;13.87;;
6517;SDS011;3292;48.944;9.240;2024-03-02T03:43:18;16.40;;;14.17;;
6517;SDS011;3292;48.944;9.240;2024-03-02T03:45:45;16.43;;;13.80;;
6517;SDS011;3292;48.944;9.240;2024-03-02T03:48:13;15.83;;;13.60;;
6517;SDS011;3292;48.944;9.240;2024-03-02T03:50:39;17.30;;;13.63;;
6517;SDS011;3292;48.944;9.240;2024-03-02T03:53:07;18.10;;;14.70;;
6517;SDS011;3292;48.944;9.240;2024-03-02T03:55:34;20.77;;;14.30;;
6517;SDS011;3292;48.944;9.240;2024-03-02T03:58:03;21.53;;;16.20;;
6517;SDS011;3292;48.944;9.240;2024-03-02T04:00:30;20.33;;;14.57;;
6517;SDS011;3292;48.944;9.240;2024-03-02T04:02:57;20.30;;;15.23;;
6517;SDS011;3292;48.944;9.240;2024-03-02T04:05:25;21.10;;;16.00;;
6517;SDS011;3292;48.944;9.240;2024-03-02T04:07:52;19.07;;;15.37;;
6517;SDS011;3292;48.944;9.240;2024-03-02T04:10:19;22.17;;;15.67;;
6517;SDS011;3292;48.944;9.240;2024-03-02T04:12:46;20.00;;;16.27;;
6517;SDS011;3292;48.944;9.240;2024-03-02T04:15:12;20.07;;;16.10;;
6517;SDS011;3292;48.944;9.240;2024-03-02T04:17:39;20.03;;;16.13;;
6517;SDS011;3292;48.944;9.240;2024-03-02T04:20:06;21.37;;;16.97;;
6517;SDS011;3292;48.944;9.240;2024-03-02T04:22:35;21.00;;;16.17;;
6517;SDS011;3292;48.944;9.240;2024-03-02T04:25:02;21.27;;;17.13;;
6517;SDS011;3292;48.944;9.240;2024-03-02T04:27:29;19.33;;;16.37;;
6517;SDS011;3292;48.944;9.240;2024-03-02T04:29:57;17.40;;;14.23;;
6517;SDS011;3292;48.944;9.240;2024-03-02T04:32:25;19.60;;;15.40;;
6517;SDS011;3292;48.944;9.240;2024-03-02T04:34:52;18.27;;;14.93;;
6517;SDS011;3292;48.944;9.240;2024-03-02T04:37:19;24.63;;;18.90;;
6517;SDS011;3292;48.944;9.240;2024-03-02T04:39:47;23.07;;;17.40;;
6517;SDS011;3292;48.944;9.240;2024-03-02T04:42:14;21.67;;;17.30;;
6517;SDS011;3292;48.944;9.240;2024-03-02T04:44:40;19.70;;;15.77;;
6517;SDS011;3292;48.944;9.240;2024-03-02T04:47:07;20.07;;;15.00;;
6517;SDS011;3292;48.944;9.240;2024-03-02T04:49:34;20.83;;;16.30;;
6517;SDS011;3292;48.944;9.240;2024-03-02T04:52:01;19.57;;;16.10;;
6517;SDS011;3292;48.944;9.240;2024-03-02T04:54:28;22.93;;;15.60;;
6517;SDS011;3292;48.944;9.240;2024-03-02T04:56:56;21.20;;;15.83;;
6517;SDS011;3292;48.944;9.240;2024-03-02T04:59:23;20.27;;;15.80;;
6517;SDS011;3292;48.944;9.240;2024-03-02T05:01:50;21.97;;;16.37;;
6517;SDS011;3292;48.944;9.240;2024-03-02T05:04:17;23.07;;;16.93;;
6517;SDS011;3292;48.944;9.240;2024-03-02T05:06:44;21.43;;;16.63;;
6517;SDS011;3292;48.944;9.240;2024-03-02T05:09:17;22.70;;;17.67;;
6517;SDS011;3292;48.944;9.240;2024-03-02T05:11:44;22.03;;;17.37;;
6517;SDS011;3292;48.944;9.240;2024-03-02T05:14:36;21.73;;;16.57;;
6517;SDS011;3292;48.944;9.240;2024-03-02T05:17:03;22.33;;;17.10;;
6517;SDS011;3292;48.944;9.240;2024-03-02T05:19:30;23.60;;;17.60;;
6517;SDS011;3292;48.944;9.240;2024-03-02T05:21:57;21.70;;;16.57;;
6517;SDS011;3292;48.944;9.240;2024-03-02T05:24:24;21.77;;;16.50;;
6517;SDS011;3292;48.944;9.240;2024-03-02T05:26:53;22.40;;;16.50;;
6517;SDS011;3292;48.944;9.240;2024-03-02T05:29:20;20.10;;;15.93;;
6517;SDS011;3292;48.944;9.240;2024-03-02T05:31:48;20.43;;;16.13;;
6517;SDS011;3292;48.944;9.240;2024-03-02T05:34:15;20.67;;;15.70;;
6517;SDS011;3292;48.944;9.240;2024-03-02T05:36:41;23.80;;;17.10;;
6517;SDS011;3292;48.944;9.240;2024-03-02T05:39:08;21.30;;;15.60;;
6517;SDS011;3292;48.944;9.240;2024-03-02T05:41:35;21.33;;;16.47;;
6517;SDS011;3292;48.944;9.240;2024-03-02T05:44:03;20.30;;;16.50;;
6517;SDS011;3292;48.944;9.240;2024-03-02T05:46:30;18.07;;;14.67;;
6517;SDS011;3292;48.944;9.240;2024-03-02T05:48:58;20.27;;;16.03;;
6517;SDS011;3292;48.944;9.240;2024-03-02T05:51:25;20.20;;;16.33;;
6517;SDS011;3292;48.944;9.240;2024-03-02T05:53:52;19.77;;;15.90;;
6517;SDS011;3292;48.944;9.240;2024-03-02T05:56:19;23.20;;;16.40;;
6517;SDS011;3292;48.944;9.240;2024-03-02T05:58:46;24.73;;;16.67;;
6517;SDS011;3292;48.944;9.240;2024-03-02T06:01:22;23.03;;;17.53;;
6517;SDS011;3292;48.944;9.240;2024-03-02T06:03:53;21.67;;;16.10;;
6517;SDS011;3292;48.944;9.240;2024-03-02T06:06:22;25.10;;;17.80;;
6517;SDS011;3292;48.944;9.240;2024-03-02T06:08:48;24.53;;;16.60;;
6517;SDS011;3292;48.944;9.240;2024-03-02T06:11:15;21.73;;;16.40;;
6517;SDS011;3292;48.944;9.240;2024-03-02T06:13:42;23.03;;;17.30;;
6517;SDS011;3292;48.944;9.240;2024-03-02T06:16:09;23.33;;;18.07;;
6517;SDS011;3292;48.944;9.240;2024-03-02T06:18:36;22.50;;;17.13;;
6517;SDS011;3292;48.944;9.240;2024-03-02T06:21:03;23.10;;;17.53;;
6517;SDS011;3292;48.944;9.240;2024-03-02T06:23:31;23.30;;;17.03;;
6517;SDS011;3292;48.944;9.240;2024-03-02T06:25:58;26.03;;;19.00;;
6517;SDS011;3292;48.944;9.240;2024-03-02T06:28:25;26.60;;;18.20;;
6517;SDS011;3292;48.944;9.240;2024-03-02T06:30:52;25.37;;;18.93;;
6517;SDS011;3292;48.944;9.240;2024-03-02T06:33:19;26.73;;;19.97;;
6517;SDS011;3292;48.944;9.240;2024-03-02T06:35:45;23.43;;;18.50;;
6517;SDS011;3292;48.944;9.240;2024-03-02T06:38:14;24.20;;;18.17;;
6517;SDS011;3292;48.944;9.240;2024-03-02T06:40:42;24.17;;;17.93;;
6517;SDS011;3292;48.944;9.240;2024-03-02T06:43:09;24.77;;;17.53;;
6517;SDS011;3292;48.944;9.240;2024-03-02T06:45:36;24.77;;;17.73;;
6517;SDS011;3292;48.944;9.240;2024-03-02T06:48:03;26.90;;;18.30;;
6517;SDS011;3292;48.944;9.240;2024-03-02T06:50:30;26.03;;;18.77;;
6517;SDS011;3292;48.944;9.240;2024-03-02T06:52:57;25.20;;;18.10;;
6517;SDS011;3292;48.944;9.240;2024-03-02T06:55:23;24.47;;;18.33;;
6517;SDS011;3292;48.944;9.240;2024-03-02T06:57:51;27.13;;;19.97;;
6517;SDS011;3292;48.944;9.240;2024-03-02T07:00:19;24.47;;;18.07;;
6517;SDS011;3292;48.944;9.240;2024-03-02T07:02:46;23.93;;;17.77;;
6517;SDS011;3292;48.944;9.240;2024-03-02T07:05:13;24.43;;;17.70;;
6517;SDS011;3292;48.944;9.240;2024-03-02T07:07:40;24.57;;;16.67;;
6517;SDS011;3292;48.944;9.240;2024-03-02T07:10:07;22.27;;;17.27;;
6517;SDS011;3292;48.944;9.240;2024-03-02T07:12:34;21.87;;;16.33;;
6517;SDS011;3292;48.944;9.240;2024-03-02T07:15:02;21.97;;;16.37;;
6517;SDS011;3292;48.944;9.240;2024-03-02T07:17:55;20.07;;;15.40;;
6517;SDS011;3292;48.944;9.240;2024-03-02T07:20:21;20.43;;;16.47;;
6517;SDS011;3292;48.944;9.240;2024-03-02T07:22:48;21.37;;;16.63;;
6517;SDS011;3292;48.944;9.240;2024-03-02T07:25:15;21.87;;;15.90;;
6517;SDS011;3292;48.944;9.240;2024-03-02T07:27:42;20.33;;;16.07;;
6517;SDS011;3292;48.944;9.240;2024-03-02T07:30:13;21.60;;;15.87;;
6517;SDS011;3292;48.944;9.240;2024-03-02T07:32:41;21.10;;;15.70;;
6517;SDS011;3292;48.944;9.240;2024-03-02T07:35:10;22.90;;;16.10;;
6517;SDS011;3292;48.944;9.240;2024-03-02T07:37:37;20.40;;;15.73;;
6517;SDS011;3292;48.944;9.240;2024-03-02T07:40:04;20.37;;;15.67;;
6517;SDS011;3292;48.944;9.240;2024-03-02T07:42:36;16.70;;;13.80;;
6517;SDS011;3292;48.944;9.240;2024-03-02T07:45:03;19.00;;;15.27;;
6517;SDS011;3292;48.944;9.240;2024-03-02T07:47:32;18.33;;;14.90;;
6517;SDS011;3292;48.944;9.240;2024-03-02T07:49:59;22.07;;;15.70;;
6517;SDS011;3292;48.944;9.240;2024-03-02T07:52:26;23.13;;;15.27;;
6517;SDS011;3292;48.944;9.240;2024-03-02T07:54:53;19.47;;;14.93;;
6517;SDS011;3292;48.944;9.240;2024-03-02T07:57:20;17.93;;;15.13;;
6517;SDS011;3292;48.944;9.240;2024-03-02T07:59:47;18.50;;;15.40;;
6517;SDS011;3292;48.944;9.240;2024-03-02T08:02:14;20.90;;;15.77;;
6517;SDS011;3292;48.944;9.240;2024-03-02T08:04:42;19.03;;;14.87;;
6517;SDS011;3292;48.944;9.240;2024-03-02T08:07:10;23.40;;;15.53;;
6517;SDS011;3292;48.944;9.240;2024-03-02T08:09:37;19.67;;;15.83;;
6517;SDS011;3292;48.944;9.240;2024-03-02T08:12:04;20.20;;;15.60;;
6517;SDS011;3292;48.944;9.240;2024-03-02T08:14:31;24.80;;;16.43;;
6517;SDS011;3292;48.944;9.240;2024-03-02T08:16:58;22.00;;;17.00;;
6517;SDS011;3292;48.944;9.240;2024-03-02T08:19:26;19.17;;;15.43;;
6517;SDS011;3292;48.944;9.240;2024-03-02T08:21:54;20.87;;;15.27;;
6517;SDS011;3292;48.944;9.240;2024-03-02T08:24:21;22.13;;;15.50;;
6517;SDS011;3292;48.944;9.240;2024-03-02T08:26:48;19.20;;;14.93;;
6517;SDS011;3292;48.944;9.240;2024-03-02T08:29:15;19.93;;;14.60;;
6517;SDS011;3292;48.944;9.240;2024-03-02T08:31:42;21.87;;;16.20;;
6517;SDS011;3292;48.944;9.240;2024-03-02T08:34:08;20.03;;;14.77;;
6517;SDS011;3292;48.944;9.240;2024-03-02T08:36:35;19.50;;;14.73;;
6517;SDS011;3292;48.944;9.240;2024-03-02T08:39:04;17.00;;;14.30;;
6517;SDS011;3292;48.944;9.240;2024-03-02T08:41:40;17.73;;;14.20;;
6517;SDS011;3292;48.944;9.240;2024-03-02T08:44:07;16.30;;;13.67;;
6517;SDS011;3292;48.944;9.240;2024-03-02T08:46:34;15.93;;;12.87;;
6517;SDS011;3292;48.944;9.240;2024-03-02T08:49:01;13.87;;;12.20;;
6517;SDS011;3292;48.944;9.240;2024-03-02T08:51:28;15.67;;;13.33;;
6517;SDS011;3292;48.944;9.240;2024-03-02T08:53:54;15.83;;;13.33;;
6517;SDS011;3292;48.944;9.240;2024-03-02T08:56:24;17.07;;;12.07;;
6517;SDS011;3292;48.944;9.240;2024-03-02T08:58:51;15.03;;;11.63;;
6517;SDS011;3292;48.944;9.240;2024-03-02T09:01:18;12.37;;;10.87;;
6517;SDS011;3292;48.944;9.240;2024-03-02T09:03:45;16.57;;;13.37;;
6517;SDS011;3292;48.944;9.240;2024-03-02T09:06:14;10.90;;;9.53;;
6517;SDS011;3292;48.944;9.240;2024-03-02T09:08:42;10.87;;;9.33;;
6517;SDS011;3292;48.944;9.240;2024-03-02T09:11:10;9.63;;;8.63;;
6517;SDS011;3292;48.944;9.240;2024-03-02T09:13:38;13.27;;;9.97;;
6517;SDS011;3292;48.944;9.240;2024-03-02T09:16:06;10.07;;;9.03;;
6517;SDS011;3292;48.944;9.240;2024-03-02T09:18:36;10.17;;;9.03;;
6517;SDS011;3292;48.944;9.240;2024-03-02T09:21:03;8.93;;;8.03;;
6517;SDS011;3292;48.944;9.240;2024-03-02T09:23:30;9.93;;;8.47;;
6517;SDS011;3292;48.944;9.240;2024-03-02T09:25:57;9.33;;;7.87;;
6517;SDS011;3292;48.944;9.240;2024-03-02T09:28:24;9.40;;;8.37;;
6517;SDS011;3292;48.944;9.240;2024-03-02T09:30:52;9.47;;;8.07;;
6517;SDS011;3292;48.944;9.240;2024-03-02T09:33:19;8.97;;;8.17;;
6517;SDS011;3292;48.944;9.240;2024-03-02T09:35:46;8.90;;;8.00;;
6517;SDS011;3292;48.944;9.240;2024-03-02T09:38:13;8.57;;;7.20;;
6517;SDS011;3292;48.944;9.240;2024-03-02T09:40:41;7.80;;;7.00;;
6517;SDS011;3292;48.944;9.240;2024-03-02T09:43:08;7.00;;;6.20;;
6517;SDS011;3292;48.944;9.240;2024-03-02T09:45:35;7.00;;;6.40;;
6517;SDS011;3292;48.944;9.240;2024-03-02T09:48:04;5.70;;;5.20;;
6517;SDS011;3292;48.944;9.240;2024-03-02T09:50:32;6.33;;;5.27;;
6517;SDS011;3292;48.944;9.240;2024-03-02T09:52:59;5.80;;;5.30;;
6517;SDS011;3292;48.944;9.240;2024-03-02T09:55:26;6.13;;;5.10;;
6517;SDS011;3292;48.944;9.240;2024-03-02T09:57:53;4.80;;;4.40;;
6517;SDS011;3292;48.944;9.240;2024-03-02T10:00:20;6.23;;;5.63;;
6517;SDS011;3292;48.944;9.240;2024-03-02T10:02:46;5.87;;;5.33;;
6517;SDS011;3292;48.944;9.240;2024-03-02T10:05:22;5.63;;;5.13;;
6517;SDS011;3292;48.944;9.240;2024-03-02T10:07:53;4.93;;;4.53;;
6517;SDS011;3292;48.944;9.240;2024-03-02T10:10:26;6.20;;;5.53;;
6517;SDS011;3292;48.944;9.240;2024-03-02T10:13:03;5.13;;;4.60;;
6517;SDS011;3292;48.944;9.240;2024-03-02T10:15:31;4.93;;;4.53;;
6517;SDS011;3292;48.944;9.240;2024-03-02T10:17:58;6.23;;;4.43;;
6517;SDS011;3292;48.944;9.240;2024-03-02T10:20:26;4.93;;;4.43;;
6517;SDS011;3292;48.944;9.240;2024-03-02T10:22:54;5.77;;;4.67;;
6517;SDS011;3292;48.944;9.240;2024-03-02T10:25:30;7.43;;;4.70;;
6517;SDS011;3292;48.944;9.240;2024-03-02T10:27:58;7.43;;;6.23;;
6517;SDS011;3292;48.944;9.240;2024-03-02T10:30:25;5.17;;;4.67;;
6517;SDS011;3292;48.944;9.240;2024-03-02T10:32:52;6.07;;;4.17;;
6517;SDS011;3292;48.944;9.240;2024-03-02T10:35:20;4.80;;;4.27;;
6517;SDS011;3292;48.944;9.240;2024-03-02T10:37:49;4.40;;;4.00;;
6517;SDS011;3292;48.944;9.240;2024-03-02T10:40:17;4.47;;;3.80;;
6517;SDS011;3292;48.944;9.240;2024-03-02T10:42:47;4.33;;;3.93;;
6517;SDS011;3292;48.944;9.240;2024-03-02T10:45:15;4.07;;;3.77;;
6517;SDS011;3292;48.944;9.240;2024-03-02T10:47:43;4.67;;;3.73;;
6517;SDS011;3292;48.944;9.240;2024-03-02T10:50:10;4.60;;;3.63;;
6517;SDS011;3292;48.944;9.240;2024-03-02T10:52:37;4.33;;;3.63;;
6517;SDS011;3292;48.944;9.240;2024-03-02T10:55:07;4.53;;;3.50;;
6517;SDS011;3292;48.944;9.240;2024-03-02T10:57:38;3.90;;;3.60;;
6517;SDS011;3292;48.944;9.240;2024-03-02T11:00:10;7.20;;;4.20;;
6517;SDS011;3292;48.944;9.240;2024-03-02T11:02:40;4.00;;;3.60;;
6517;SDS011;3292;48.944;9.240;2024-03-02T11:05:09;3.73;;;3.23;;
6517;SDS011;3292;48.944;9.240;2024-03-02T11:07:38;3.20;;;2.90;;
6517;SDS011;3292;48.944;9.240;2024-03-02T11:10:08;3.50;;;3.20;;
6517;SDS011;3292;48.944;9.240;2024-03-02T11:12:36;3.33;;;3.03;;
6517;SDS011;3292;48.944;9.240;2024-03-02T11:15:10;3.00;;;2.50;;
6517;SDS011;3292;48.944;9.240;2024-03-02T11:17:43;2.80;;;2.57;;
6517;SDS011;3292;48.944;9.240;2024-03-02T11:20:11;3.17;;;2.83;;
6517;SDS011;3292;48.944;9.240;2024-03-02T11:22:38;2.70;;;2.50;;
6517;SDS011;3292;48.944;9.240;2024-03-02T11:25:06;2.70;;;2.50;;
6517;SDS011;3292;48.944;9.240;2024-03-02T11:28:00;3.03;;;2.40;;
6517;SDS011;3292;48.944;9.240;2024-03-02T11:30:49;2.23;;;2.03;;
6517;SDS011;3292;48.944;9.240;2024-03-02T11:33:22;2.40;;;2.10;;
6517;SDS011;3292;48.944;9.240;2024-03-02T11:35:52;2.20;;;2.00;;
6517;SDS011;3292;48.944;9.240;2024-03-02T11:38:19;2.40;;;2.20;;
6517;SDS011;3292;48.944;9.240;2024-03-02T11:40:48;3.20;;;2.30;;
6517;SDS011;3292;48.944;9.240;2024-03-02T11:43:15;2.57;;;2.37;;
6517;SDS011;3292;48.944;9.240;2024-03-02T11:45:43;3.00;;;2.63;;
6517;SDS011;3292;48.944;9.240;2024-03-02T11:48:10;3.43;;;2.60;;
6517;SDS011;3292;48.944;9.240;2024-03-02T11:50:40;3.00;;;2.80;;
6517;SDS011;3292;48.944;9.240;2024-03-02T11:53:09;3.37;;;2.50;;
6517;SDS011;3292;48.944;9.240;2024-03-02T11:55:38;3.30;;;2.70;;
6517;SDS011;3292;48.944;9.240;2024-03-02T11:58:07;2.97;;;2.23;;
6517;SDS011;3292;48.944;9.240;2024-03-02T12:00:34;2.70;;;2.50;;
6517;SDS011;3292;48.944;9.240;2024-03-02T12:03:01;2.60;;;2.40;;
6517;SDS011;3292;48.944;9.240;2024-03-02T12:05:30;2.87;;;2.53;;
6517;SDS011;3292;48.944;9.240;2024-03-02T12:07:57;2.57;;;2.37;;
6517;SDS011;3292;48.944;9.240;2024-03-02T12:10:24;2.30;;;2.10;;
6517;SDS011;3292;48.944;9.240;2024-03-02T12:12:55;2.57;;;2.37;;
6517;SDS011;3292;48.944;9.240;2024-03-02T12:15:25;2.40;;;2.20;;
6517;SDS011;3292;48.944;9.240;2024-03-02T12:17:53;2.00;;;1.90;;
6517;SDS011;3292;48.944;9.240;2024-03-02T12:20:20;2.20;;;2.00;;
6517;SDS011;3292;48.944;9.240;2024-03-02T12:22:48;2.60;;;2.40;;
6517;SDS011;3292;48.944;9.240;2024-03-02T12:25:15;2.27;;;2.07;;
6517;SDS011;3292;48.944;9.240;2024-03-02T12:27:42;3.03;;;2.20;;
6517;SDS011;3292;48.944;9.240;2024-03-02T12:30:11;2.23;;;2.03;;
6517;SDS011;3292;48.944;9.240;2024-03-02T12:32:40;1.90;;;1.80;;
6517;SDS011;3292;48.944;9.240;2024-03-02T12:35:07;2.03;;;1.83;;
6517;SDS011;3292;48.944;9.240;2024-03-02T12:37:41;1.90;;;1.80;;
6517;SDS011;3292;48.944;9.240;2024-03-02T12:40:09;2.40;;;2.20;;
6517;SDS011;3292;48.944;9.240;2024-03-02T12:42:37;1.83;;;1.73;;
6517;SDS011;3292;48.944;9.240;2024-03-02T12:45:05;2.10;;;1.90;;
6517;SDS011;3292;48.944;9.240;2024-03-02T12:47:32;2.90;;;2.13;;
6517;SDS011;3292;48.944;9.240;2024-03-02T12:50:01;2.90;;;1.90;;
6517;SDS011;3292;48.944;9.240;2024-03-02T12:52:28;2.57;;;1.90;;
6517;SDS011;3292;48.944;9.240;2024-03-02T12:54:57;1.90;;;1.80;;
6517;SDS011;3292;48.944;9.240;2024-03-02T12:57:25;5.10;;;2.30;;
6517;SDS011;3292;48.944;9.240;2024-03-02T12:59:56;2.17;;;1.97;;
6517;SDS011;3292;48.944;9.240;2024-03-02T13:02:27;1.67;;;1.53;;
6517;SDS011;3292;48.944;9.240;2024-03-02T13:04:54;2.00;;;1.80;;
6517;SDS011;3292;48.944;9.240;2024-03-02T13:07:23;1.60;;;1.50;;
6517;SDS011;3292;48.944;9.240;2024-03-02T13:09:50;1.77;;;1.67;;
6517;SDS011;3292;48.944;9.240;2024-03-02T13:12:17;1.70;;;1.60;;
6517;SDS011;3292;48.944;9.240;2024-03-02T13:14:47;1.60;;;1.50;;
6517;SDS011;3292;48.944;9.240;2024-03-02T13:17:16;2.27;;;1.77;;
6517;SDS011;3292;48.944;9.240;2024-03-02T13:19:50;2.50;;;1.50;;
6517;SDS011;3292;48.944;9.240;2024-03-02T13:22:18;2.17;;;1.70;;
6517;SDS011;3292;48.944;9.240;2024-03-02T13:24:47;1.77;;;1.60;;
6517;SDS011;3292;48.944;9.240;2024-03-02T13:27:14;1.60;;;1.50;;
6517;SDS011;3292;48.944;9.240;2024-03-02T13:29:44;1.63;;;1.53;;
6517;SDS011;3292;48.944;9.240;2024-03-02T13:32:11;1.67;;;1.57;;
6517;SDS011;3292;48.944;9.240;2024-03-02T13:34:38;2.20;;;2.00;;
6517;SDS011;3292;48.944;9.240;2024-03-02T13:37:05;1.80;;;1.70;;
6517;SDS011;3292;48.944;9.240;2024-03-02T13:39:31;1.80;;;1.70;;
6517;SDS011;3292;48.944;9.240;2024-03-02T13:42:06;1.83;;;1.70;;
6517;SDS011;3292;48.944;9.240;2024-03-02T13:44:33;2.20;;;1.80;;
6517;SDS011;3292;48.944;9.240;2024-03-02T13:47:00;3.60;;;3.30;;
6517;SDS011;3292;48.944;9.240;2024-03-02T13:49:27;3.80;;;3.40;;
6517;SDS011;3292;48.944;9.240;2024-03-02T13:51:58;5.33;;;3.87;;
6517;SDS011;3292;48.944;9.240;2024-03-02T13:54:29;1.77;;;1.67;;
6517;SDS011;3292;48.944;9.240;2024-03-02T13:56:56;12.40;;;9.33;;
6517;SDS011;3292;48.944;9.240;2024-03-02T13:59:25;2.60;;;2.40;;
6517;SDS011;3292;48.944;9.240;2024-03-02T14:01:52;12.90;;;7.60;;
6517;SDS011;3292;48.944;9.240;2024-03-02T14:04:19;9.53;;;7.37;;
6517;SDS011;3292;48.944;9.240;2024-03-02T14:06:46;3.23;;;2.60;;
6517;SDS011;3292;48.944;9.240;2024-03-02T14:09:13;24.50;;;11.03;;
6517;SDS011;3292;48.944;9.240;2024-03-02T14:11:40;6.60;;;4.90;;
6517;SDS011;3292;48.944;9.240;2024-03-02T14:14:06;2.47;;;2.27;;
6517;SDS011;3292;48.944;9.240;2024-03-02T14:16:35;2.07;;;1.87;;
6517;SDS011;3292;48.944;9.240;2024-03-02T14:19:02;1.80;;;1.70;;
6517;SDS011;3292;48.944;9.240;2024-03-02T14:21:30;2.33;;;1.70;;
6517;SDS011;3292;48.944;9.240;2024-03-02T14:23:57;1.70;;;1.60;;
6517;SDS011;3292;48.944;9.240;2024-03-02T14:26:23;1.70;;;1.57;;
6517;SDS011;3292;48.944;9.240;2024-03-02T14:28:50;2.43;;;2.17;;
6517;SDS011;3292;48.944;9.240;2024-03-02T14:31:17;4.37;;;1.80;;
6517;SDS011;3292;48.944;9.240;2024-03-02T14:33:46;2.60;;;1.93;;
6517;SDS011;3292;48.944;9.240;2024-03-02T14:36:13;2.80;;;2.60;;
6517;SDS011;3292;48.944;9.240;2024-03-02T14:38:40;1.70;;;1.60;;
6517;SDS011;3292;48.944;9.240;2024-03-02T14:41:07;2.30;;;1.70;;
6517;SDS011;3292;48.944;9.240;2024-03-02T14:43:34;2.40;;;1.77;;
6517;SDS011;3292;48.944;9.240;2024-03-02T14:46:02;1.77;;;1.63;;
6517;SDS011;3292;48.944;9.240;2024-03-02T14:48:30;1.40;;;1.30;;
6517;SDS011;3292;48.944;9.240;2024-03-02T14:50:58;2.47;;;1.53;;
6517;SDS011;3292;48.944;9.240;2024-03-02T14:53:25;1.67;;;1.57;;
6517;SDS011;3292;48.944;9.240;2024-03-02T14:55:52;1.63;;;1.53;;
6517;SDS011;3292;48.944;9.240;2024-03-02T14:58:19;1.70;;;1.50;;
6517;SDS011;3292;48.944;9.240;2024-03-02T15:00:46;1.60;;;1.40;;
6517;SDS011;3292;48.944;9.240;2024-03-02T15:03:13;1.70;;;1.60;;